Yu Xian, China
Current Conditions -  °F | °C
As of 11:00 PM on Friday 19 Dec 2014 (Local Time) from ZBSJ Reporting Station
Clear Clear  
Wind Chill: 19°   Ceiling: Unl
Heat Index: 27°   Visibility: 6mi
Dew Point:   Wind: 7mph
Humidity: 34%   Direction: 330°NNW
Pressure: 30.45"   Gusts: NA
Location:  39.83°N, 114.57°E
Report Text: ZBSJ 191500Z 33003MPS CAVOK M03/M17 Q1031 NOSIG
Loading
Personal Weather Stations






























Interactive Weather Map New forecast layout! Learn more

10-Day Weather Forecast

Advertisements
Track Severe Weather on mobile